createdAt,value
2023-02-11T00:01:30.632Z,48.67
2023-02-11T00:04:00.159Z,47.20
2023-02-11T00:06:29.271Z,43.27
2023-02-11T00:08:58.945Z,46.33
2023-02-11T00:11:30.473Z,42.03
2023-02-11T00:14:00.823Z,47.30
2023-02-11T00:16:29.566Z,44.53
2023-02-11T00:18:57.763Z,44.90
2023-02-11T00:21:27.867Z,41.83
2023-02-11T00:23:57.165Z,43.17
2023-02-11T00:26:27.050Z,39.80
2023-02-11T00:28:57.317Z,44.20
2023-02-11T00:31:26.487Z,47.80
2023-02-11T00:33:55.048Z,44.83
2023-02-11T00:36:24.858Z,42.43
2023-02-11T00:38:55.464Z,43.63
2023-02-11T00:41:23.908Z,41.50
2023-02-11T00:43:52.563Z,41.20
2023-02-11T00:46:22.787Z,41.47
2023-02-11T00:48:55.003Z,47.33
2023-02-11T00:51:23.027Z,44.27
2023-02-11T00:53:51.203Z,45.07
2023-02-11T00:56:19.093Z,48.53
2023-02-11T00:58:47.013Z,42.47
2023-02-11T01:01:15.863Z,44.83
2023-02-11T01:03:45.105Z,47.87
2023-02-11T01:06:13.341Z,44.70
2023-02-11T01:08:41.344Z,48.00
2023-02-11T01:11:14.611Z,48.70
2023-02-11T01:13:42.602Z,47.20
2023-02-11T01:16:12.046Z,45.07
2023-02-11T01:18:41.911Z,49.60
2023-02-11T01:21:11.210Z,47.33
2023-02-11T01:23:39.088Z,47.83
2023-02-11T01:26:08.376Z,44.90
2023-02-11T01:28:36.632Z,47.63
2023-02-11T01:31:05.513Z,46.27
2023-02-11T01:33:33.628Z,46.97
2023-02-11T01:36:03.737Z,44.67
2023-02-11T01:38:34.243Z,44.80
2023-02-11T01:41:06.079Z,39.67
2023-02-11T01:43:36.762Z,44.40
2023-02-11T01:46:15.651Z,45.37
2023-02-11T01:48:46.630Z,48.03
2023-02-11T01:51:18.021Z,43.43
2023-02-11T01:54:06.839Z,43.87
2023-02-11T01:56:56.079Z,43.77
2023-02-11T01:59:28.243Z,45.97
2023-02-11T02:02:00.036Z,42.27
2023-02-11T02:04:34.150Z,46.20
2023-02-11T02:07:07.462Z,49.10
2023-02-11T02:09:42.748Z,42.57
2023-02-11T02:12:10.687Z,44.87
2023-02-11T02:14:40.641Z,45.80
2023-02-11T02:17:10.833Z,46.53
2023-02-11T02:20:04.260Z,42.40
2023-02-11T02:22:57.968Z,47.07
2023-02-11T02:25:59.303Z,44.33
2023-02-11T02:28:52.256Z,50.97
2023-02-11T02:31:41.752Z,42.03
2023-02-11T02:34:17.479Z,46.80
2023-02-11T02:36:50.239Z,46.40
2023-02-11T02:39:25.051Z,46.00
2023-02-11T02:41:54.618Z,45.90
2023-02-11T02:44:22.790Z,42.17
2023-02-11T02:46:50.744Z,44.60
2023-02-11T02:49:20.101Z,49.40
2023-02-11T02:52:05.047Z,42.63
2023-02-11T02:55:08.783Z,48.70
2023-02-11T02:57:46.377Z,46.00
2023-02-11T03:00:25.004Z,49.63
2023-02-11T03:03:04.888Z,45.20
2023-02-11T03:05:43.716Z,45.73
2023-02-11T03:08:18.273Z,48.20
2023-02-11T03:10:49.398Z,47.33
2023-02-11T03:13:19.945Z,44.37
2023-02-11T03:15:53.542Z,48.87
2023-02-11T03:18:26.065Z,48.43
2023-02-11T03:20:57.310Z,46.70
2023-02-11T03:23:30.661Z,46.33
2023-02-11T03:26:03.866Z,50.97
2023-02-11T03:28:34.929Z,46.03
2023-02-11T03:31:11.964Z,46.63
2023-02-11T03:33:45.185Z,47.10
2023-02-11T03:36:19.096Z,51.10
2023-02-11T03:38:51.682Z,48.37
2023-02-11T03:41:24.592Z,47.80
2023-02-11T03:43:57.056Z,47.67
2023-02-11T03:46:31.687Z,48.27
2023-02-11T03:49:04.555Z,47.87
2023-02-11T03:51:34.767Z,49.30
2023-02-11T03:54:05.345Z,48.30
2023-02-11T03:56:39.578Z,51.10
2023-02-11T03:59:07.415Z,48.33
2023-02-11T04:01:35.744Z,49.37
2023-02-11T04:04:03.802Z,56.00
2023-02-11T04:06:33.043Z,46.73
2023-02-11T04:09:00.941Z,54.60
2023-02-11T04:11:29.418Z,54.43
2023-02-11T04:13:57.341Z,55.33
2023-02-11T04:16:25.308Z,54.10
2023-02-11T04:18:53.308Z,51.60
2023-02-11T04:21:21.319Z,49.67
2023-02-11T04:23:50.681Z,49.00
2023-02-11T04:26:18.998Z,50.97
2023-02-11T04:28:46.880Z,51.43
2023-02-11T04:31:14.789Z,51.00
2023-02-11T04:33:42.530Z,54.17
2023-02-11T04:36:10.626Z,56.30
2023-02-11T04:38:38.424Z,49.00
2023-02-11T04:41:07.751Z,58.47
2023-02-11T04:43:35.837Z,50.90
2023-02-11T04:46:03.745Z,52.37
2023-02-11T04:48:31.639Z,53.03
2023-02-11T04:50:59.726Z,59.37
2023-02-11T04:53:27.613Z,62.27
2023-02-11T04:55:55.623Z,52.13
2023-02-11T04:58:25.362Z,58.07
2023-02-11T05:00:53.519Z,57.97
2023-02-11T05:03:21.419Z,55.83
2023-02-11T05:05:50.110Z,56.43
2023-02-11T05:08:18.148Z,55.23
2023-02-11T05:10:48.328Z,59.03
2023-02-11T05:13:16.288Z,56.90
2023-02-11T05:15:45.585Z,62.60
2023-02-11T05:18:14.975Z,59.63
2023-02-11T05:20:44.009Z,55.33
2023-02-11T05:23:12.118Z,61.30
2023-02-11T05:25:40.252Z,61.97
2023-02-11T05:28:08.561Z,66.40
2023-02-11T05:30:36.500Z,62.23
2023-02-11T05:33:06.059Z,67.97
2023-02-11T05:35:33.937Z,68.47
2023-02-11T05:38:01.878Z,68.37
2023-02-11T05:40:29.896Z,69.67
2023-02-11T05:42:57.796Z,67.43
2023-02-11T05:45:25.646Z,59.67
2023-02-11T05:47:53.516Z,68.77
2023-02-11T05:50:23.082Z,66.23
2023-02-11T05:52:51.047Z,66.83
2023-02-11T05:55:19.213Z,69.90
2023-02-11T05:57:47.219Z,65.00
2023-02-11T06:00:16.407Z,66.60
2023-02-11T06:02:44.377Z,69.00
2023-02-11T06:05:12.539Z,65.83
2023-02-11T06:07:41.824Z,71.63
2023-02-11T06:10:10.409Z,69.37
2023-02-11T06:12:42.378Z,73.20
2023-02-11T06:15:10.470Z,72.47
2023-02-11T06:17:38.364Z,67.10
2023-02-11T06:20:08.614Z,63.00
2023-02-11T06:22:36.585Z,70.63
2023-02-11T06:25:06.982Z,73.27
2023-02-11T06:27:34.870Z,67.30
2023-02-11T06:30:02.829Z,66.90
2023-02-11T06:32:46.364Z,68.40
2023-02-11T06:35:15.840Z,69.73
2023-02-11T06:37:44.026Z,63.17
2023-02-11T06:40:13.702Z,71.73
2023-02-11T06:42:41.852Z,68.47
2023-02-11T06:45:10.967Z,67.20
2023-02-11T06:47:40.056Z,64.63
2023-02-11T06:50:12.197Z,72.97
2023-02-11T06:52:40.174Z,69.20
2023-02-11T06:55:08.425Z,68.80
2023-02-11T06:57:37.921Z,61.77
2023-02-11T07:00:07.323Z,71.17
2023-02-11T07:02:35.300Z,68.00
2023-02-11T07:05:03.200Z,74.67
2023-02-11T07:07:34.083Z,67.87
2023-02-11T07:10:04.058Z,66.77
2023-02-11T07:12:32.111Z,67.67
2023-02-11T07:15:02.054Z,63.13
2023-02-11T07:17:30.026Z,61.77
2023-02-11T07:19:57.913Z,71.70
2023-02-11T07:22:25.742Z,69.77
2023-02-11T07:24:53.661Z,66.03
2023-02-11T07:27:21.557Z,70.00
2023-02-11T07:29:49.316Z,74.40
2023-02-11T07:32:18.496Z,72.60
2023-02-11T07:34:48.026Z,64.43
2023-02-11T07:37:16.056Z,70.37
2023-02-11T07:39:44.155Z,74.60
2023-02-11T07:42:12.149Z,63.27
2023-02-11T07:44:40.291Z,68.07
2023-02-11T07:47:08.356Z,68.10
2023-02-11T07:49:37.721Z,69.30
2023-02-11T07:52:07.243Z,68.30
2023-02-11T07:54:35.293Z,65.83
2023-02-11T07:57:03.208Z,70.00
2023-02-11T07:59:33.276Z,64.07
2023-02-11T08:02:01.261Z,70.90
2023-02-11T08:04:29.184Z,67.50
2023-02-11T08:06:59.269Z,66.63
2023-02-11T08:09:27.385Z,63.27
2023-02-11T08:11:55.441Z,68.80
2023-02-11T08:14:25.318Z,68.47
2023-02-11T08:16:53.536Z,62.73
2023-02-11T08:19:21.503Z,66.00
2023-02-11T08:21:49.312Z,67.60
2023-02-11T08:24:18.591Z,65.53
2023-02-11T08:26:46.968Z,59.33
2023-02-11T08:29:17.934Z,63.97
2023-02-11T08:31:48.004Z,65.87
2023-02-11T08:34:18.398Z,67.73
2023-02-11T08:36:48.103Z,68.83
2023-02-11T08:39:20.646Z,71.50
2023-02-11T08:41:50.094Z,62.80
2023-02-11T08:44:19.163Z,60.73
2023-02-11T08:46:47.413Z,66.97
2023-02-11T08:49:15.679Z,60.60
2023-02-11T08:51:44.867Z,59.87
2023-02-11T08:54:13.340Z,66.10
2023-02-11T08:56:43.304Z,64.83
2023-02-11T08:59:14.707Z,62.47
2023-02-11T09:01:44.257Z,62.03
2023-02-11T09:04:12.490Z,64.73
2023-02-11T09:06:40.565Z,65.10
2023-02-11T09:09:13.437Z,53.40
2023-02-11T09:11:44.223Z,52.83
2023-02-11T09:14:18.387Z,56.47
2023-02-11T09:16:46.496Z,56.17
2023-02-11T09:19:14.487Z,57.77
2023-02-11T09:21:42.377Z,56.00
2023-02-11T09:24:11.149Z,47.67
2023-02-11T09:26:39.570Z,57.37
2023-02-11T09:29:08.861Z,55.37
2023-02-11T09:31:37.104Z,56.53
2023-02-11T09:34:07.086Z,53.10
2023-02-11T09:36:38.343Z,50.17
2023-02-11T09:39:08.463Z,52.17
2023-02-11T09:41:46.348Z,49.80
2023-02-11T09:44:25.679Z,52.03
2023-02-11T09:46:58.006Z,49.97
2023-02-11T09:49:33.124Z,49.43
2023-02-11T09:52:07.775Z,48.67
2023-02-11T09:54:54.156Z,54.67
2023-02-11T09:57:29.264Z,52.70
2023-02-11T09:59:59.505Z,48.50
2023-02-11T10:02:42.908Z,45.27
2023-02-11T10:05:32.665Z,52.60
2023-02-11T10:08:14.639Z,53.00
2023-02-11T10:10:53.922Z,53.33
2023-02-11T10:13:54.701Z,46.03
2023-02-11T10:16:48.963Z,47.43
2023-02-11T10:19:48.243Z,49.97
2023-02-11T10:22:24.763Z,53.73
2023-02-11T10:24:58.786Z,51.67
2023-02-11T10:27:32.530Z,51.17
2023-02-11T10:30:11.057Z,51.87
2023-02-11T10:32:50.518Z,51.07
2023-02-11T10:35:25.235Z,47.53
2023-02-11T10:37:58.071Z,48.30
2023-02-11T10:40:30.931Z,44.90
2023-02-11T10:43:07.954Z,46.10
2023-02-11T10:45:44.710Z,48.17
2023-02-11T10:48:40.779Z,47.23
2023-02-11T10:51:16.302Z,42.87
2023-02-11T10:53:53.439Z,44.23
2023-02-11T10:56:28.432Z,42.33
2023-02-11T10:59:02.118Z,49.97
2023-02-11T11:01:42.236Z,45.00
2023-02-11T11:04:40.792Z,45.20
2023-02-11T11:07:24.510Z,48.83
2023-02-11T11:10:07.025Z,43.73
2023-02-11T11:12:46.452Z,42.40
2023-02-11T11:15:22.118Z,46.70
2023-02-11T11:17:51.415Z,42.53
2023-02-11T11:20:28.744Z,37.97
2023-02-11T11:23:18.321Z,44.70
2023-02-11T11:26:00.828Z,43.93
2023-02-11T11:28:33.314Z,39.70
2023-02-11T11:31:02.331Z,36.23
2023-02-11T11:33:34.474Z,38.97
2023-02-11T11:36:08.803Z,36.27
2023-02-11T11:38:47.810Z,36.67
2023-02-11T11:41:27.759Z,35.13
2023-02-11T11:44:00.270Z,35.50
2023-02-11T11:46:31.602Z,39.43
2023-02-11T11:49:24.781Z,34.00
2023-02-11T11:52:15.873Z,30.93
2023-02-11T11:54:57.287Z,30.70
2023-02-11T11:57:30.137Z,35.23
2023-02-11T11:59:59.623Z,30.33
2023-02-11T12:02:55.212Z,29.47
2023-02-11T12:05:37.587Z,40.63
2023-02-11T12:08:20.511Z,32.30
2023-02-11T12:11:08.632Z,33.43
2023-02-11T12:13:47.223Z,30.17
2023-02-11T12:16:29.051Z,34.53
2023-02-11T12:19:33.858Z,32.00
2023-02-11T12:22:11.001Z,34.33
2023-02-11T12:25:26.470Z,27.87
2023-02-11T12:28:04.679Z,35.73
2023-02-11T12:30:54.118Z,34.00
2023-02-11T12:33:37.704Z,28.53
2023-02-11T12:36:14.214Z,29.93
2023-02-11T12:39:05.687Z,29.17
2023-02-11T12:42:06.680Z,29.90
2023-02-11T12:44:50.816Z,30.23
2023-02-11T12:47:32.679Z,29.17
2023-02-11T12:50:17.382Z,26.27
2023-02-11T12:52:58.051Z,29.63
2023-02-11T12:55:35.845Z,26.60
2023-02-11T12:58:07.351Z,28.07
2023-02-11T13:00:44.450Z,37.00
2023-02-11T13:03:19.982Z,31.77
2023-02-11T13:05:52.424Z,30.60
2023-02-11T13:08:29.129Z,27.20
2023-02-11T13:11:08.190Z,27.67
2023-02-11T13:13:49.267Z,32.07
2023-02-11T13:16:24.163Z,28.97
2023-02-11T13:18:57.986Z,33.97
2023-02-11T13:21:50.018Z,33.23
2023-02-11T13:24:28.384Z,27.03
2023-02-11T13:27:10.260Z,30.43
2023-02-11T13:30:15.700Z,28.63
2023-02-11T13:33:21.764Z,29.50
2023-02-11T13:36:20.087Z,35.43
2023-02-11T13:39:03.678Z,30.13
2023-02-11T13:41:37.887Z,28.90
2023-02-11T13:44:26.300Z,28.53
2023-02-11T13:47:16.237Z,30.10
2023-02-11T13:49:54.697Z,27.23
2023-02-11T13:52:27.539Z,28.27
2023-02-11T13:54:59.399Z,26.80
2023-02-11T13:57:42.856Z,33.63
2023-02-11T14:00:51.004Z,28.53
2023-02-11T14:03:50.240Z,29.10
2023-02-11T14:06:39.961Z,26.07
2023-02-11T14:09:39.971Z,30.50
2023-02-11T14:12:33.957Z,26.83
2023-02-11T14:15:19.975Z,26.03
2023-02-11T14:18:03.042Z,27.33
2023-02-11T14:20:39.286Z,29.87
2023-02-11T14:23:10.057Z,27.00
2023-02-11T14:25:40.845Z,32.30
2023-02-11T14:28:17.848Z,29.40
2023-02-11T14:30:56.152Z,28.30
2023-02-11T14:33:52.812Z,27.07
2023-02-11T14:36:43.789Z,26.80
2023-02-11T14:39:31.288Z,25.10
2023-02-11T14:42:02.874Z,25.93
2023-02-11T14:44:33.763Z,26.10
2023-02-11T14:47:02.360Z,24.50
2023-02-11T14:49:38.050Z,32.50
2023-02-11T14:52:17.714Z,30.17
2023-02-11T14:54:49.958Z,29.57
2023-02-11T14:57:25.245Z,26.73
2023-02-11T15:00:01.881Z,33.77
2023-02-11T15:02:34.705Z,38.00
2023-02-11T15:05:19.388Z,35.53
2023-02-11T15:08:02.653Z,30.50
2023-02-11T15:10:46.730Z,33.67
2023-02-11T15:13:27.197Z,33.43
2023-02-11T15:15:59.342Z,33.27
2023-02-11T15:18:38.669Z,32.67
2023-02-11T15:21:23.421Z,29.53
2023-02-11T15:24:09.403Z,23.93
2023-02-11T15:26:38.494Z,23.20
2023-02-11T15:29:25.854Z,24.20
2023-02-11T15:32:17.280Z,23.40
2023-02-11T15:34:48.897Z,22.97
2023-02-11T15:37:35.721Z,20.90
2023-02-11T15:40:30.501Z,19.73
2023-02-11T15:43:00.178Z,19.03
2023-02-11T15:45:49.180Z,21.87
2023-02-11T15:48:24.867Z,18.10
2023-02-11T15:51:10.182Z,18.13
2023-02-11T15:53:43.689Z,15.97
2023-02-11T15:56:31.986Z,17.90
2023-02-11T15:59:28.079Z,18.73
2023-02-11T16:02:02.016Z,25.33
2023-02-11T16:04:32.198Z,18.33
2023-02-11T16:07:03.845Z,21.47
2023-02-11T16:09:41.936Z,17.63
2023-02-11T16:12:27.301Z,18.93
2023-02-11T16:14:57.287Z,14.30
2023-02-11T16:17:33.412Z,15.77
2023-02-11T16:20:11.495Z,16.30
2023-02-11T16:22:40.447Z,16.10
2023-02-11T16:25:24.538Z,16.03
2023-02-11T16:27:56.379Z,13.53
2023-02-11T16:30:33.005Z,12.67
2023-02-11T16:33:14.490Z,12.10
2023-02-11T16:35:54.134Z,12.77
2023-02-11T16:38:40.748Z,11.17
2023-02-11T16:41:20.037Z,11.27
2023-02-11T16:43:54.964Z,9.77
2023-02-11T16:46:27.851Z,14.17
2023-02-11T16:49:02.431Z,14.10
2023-02-11T16:51:31.530Z,11.43
2023-02-11T16:54:04.022Z,10.77
2023-02-11T16:56:34.875Z,11.80
2023-02-11T16:59:13.470Z,11.33
2023-02-11T17:01:58.084Z,8.40
2023-02-11T17:04:37.970Z,8.47
2023-02-11T17:07:14.233Z,12.13
2023-02-11T17:09:42.420Z,10.00
2023-02-11T17:12:15.507Z,10.43
2023-02-11T17:14:48.534Z,9.13
2023-02-11T17:17:18.525Z,10.00
2023-02-11T17:19:51.837Z,10.83
2023-02-11T17:22:20.657Z,10.27
2023-02-11T17:24:48.822Z,11.17
2023-02-11T17:27:21.249Z,12.53
2023-02-11T17:30:08.117Z,11.33
2023-02-11T17:32:36.054Z,10.93
2023-02-11T17:35:08.073Z,10.93
2023-02-11T17:37:36.754Z,12.60
2023-02-11T17:40:10.665Z,12.93
2023-02-11T17:42:53.928Z,10.27
2023-02-11T17:45:34.484Z,10.37
2023-02-11T17:48:02.668Z,9.50
2023-02-11T17:50:38.077Z,11.23
2023-02-11T17:53:11.536Z,10.07
2023-02-11T17:55:45.000Z,9.90
2023-02-11T17:58:15.980Z,11.10
2023-02-11T18:00:52.055Z,9.70
2023-02-11T18:03:21.523Z,9.83
2023-02-11T18:05:59.142Z,9.07
2023-02-11T18:08:31.058Z,8.63
2023-02-11T18:11:02.200Z,8.87
2023-02-11T18:13:34.711Z,10.03
2023-02-11T18:16:18.441Z,7.67
2023-02-11T18:18:46.984Z,9.57
2023-02-11T18:21:16.497Z,8.77
2023-02-11T18:23:50.679Z,9.97
2023-02-11T18:26:21.145Z,8.73
2023-02-11T18:28:52.810Z,9.33
2023-02-11T18:31:25.712Z,7.93
2023-02-11T18:33:54.862Z,8.83
2023-02-11T18:36:38.041Z,9.50
2023-02-11T18:39:12.351Z,12.10
2023-02-11T18:41:48.483Z,8.47
2023-02-11T18:44:22.601Z,12.17
2023-02-11T18:49:47.920Z,9.10
2023-02-11T18:52:27.253Z,11.87
2023-02-11T18:55:11.886Z,10.97
2023-02-11T18:57:47.073Z,11.43
2023-02-11T19:00:20.516Z,14.17
2023-02-11T19:02:56.468Z,12.77
2023-02-11T19:05:36.468Z,12.63
2023-02-11T19:08:08.702Z,10.80
2023-02-11T19:10:42.171Z,13.03
2023-02-11T19:13:14.422Z,10.07
2023-02-11T19:15:43.726Z,12.00
2023-02-11T19:18:28.064Z,13.40
2023-02-11T19:21:01.011Z,13.30
2023-02-11T19:23:36.929Z,11.77
2023-02-11T19:26:12.090Z,13.07
2023-02-11T19:28:48.026Z,13.73
2023-02-11T19:31:17.730Z,15.67
2023-02-11T19:33:47.751Z,11.67
2023-02-11T19:36:23.934Z,13.40
2023-02-11T19:39:12.239Z,12.90
2023-02-11T19:41:46.275Z,12.83
2023-02-11T19:44:20.188Z,11.20
2023-02-11T19:47:00.901Z,13.23
2023-02-11T19:49:43.745Z,11.80
2023-02-11T19:52:26.401Z,19.93
2023-02-11T19:54:55.123Z,12.77
2023-02-11T19:57:32.867Z,10.53
2023-02-11T20:00:07.970Z,12.23
2023-02-11T20:02:35.881Z,12.13
2023-02-11T20:05:06.794Z,10.83
2023-02-11T20:07:35.184Z,14.40
2023-02-11T20:10:03.783Z,14.07
2023-02-11T20:12:32.036Z,10.73
2023-02-11T20:15:00.162Z,11.03
2023-02-11T20:17:28.273Z,10.80
2023-02-11T20:19:56.325Z,15.13
2023-02-11T20:22:25.590Z,10.40
2023-02-11T20:24:53.646Z,14.13
2023-02-11T20:27:21.898Z,13.13
2023-02-11T20:29:50.203Z,15.40
2023-02-11T20:32:18.648Z,13.30
2023-02-11T20:34:46.761Z,16.30
2023-02-11T20:37:14.780Z,11.97
2023-02-11T20:39:46.781Z,12.23
2023-02-11T20:42:15.551Z,17.20
2023-02-11T20:44:43.671Z,10.23
2023-02-11T20:47:13.959Z,10.03
2023-02-11T20:49:42.283Z,10.13
2023-02-11T20:52:11.171Z,12.40
2023-02-11T20:54:39.224Z,11.97
2023-02-11T20:57:08.867Z,11.47
2023-02-11T20:59:36.794Z,8.50
2023-02-11T21:02:05.732Z,11.60
2023-02-11T21:04:33.783Z,12.73
2023-02-11T21:07:03.147Z,10.57
2023-02-11T21:09:34.534Z,12.77
2023-02-11T21:12:03.894Z,14.73
2023-02-11T21:14:34.011Z,14.90
2023-02-11T21:17:02.370Z,14.23
2023-02-11T21:19:30.684Z,10.83
2023-02-11T21:22:00.841Z,10.43
2023-02-11T21:24:30.783Z,14.70
2023-02-11T21:26:59.579Z,11.30
2023-02-11T21:29:27.958Z,11.03
2023-02-11T21:31:57.385Z,12.97
2023-02-11T21:34:25.543Z,17.10
2023-02-11T21:36:54.262Z,16.90
2023-02-11T21:39:22.873Z,16.30
2023-02-11T21:41:51.760Z,10.53
2023-02-11T21:44:20.363Z,13.87
2023-02-11T21:46:48.437Z,10.03
2023-02-11T21:49:19.762Z,12.87
2023-02-11T21:51:47.824Z,11.60
2023-02-11T21:54:16.008Z,13.07
2023-02-11T21:56:43.871Z,15.07
2023-02-11T21:59:13.476Z,14.43
2023-02-11T22:01:42.425Z,13.60
2023-02-11T22:04:11.165Z,11.90
2023-02-11T22:06:40.479Z,11.67
2023-02-11T22:09:11.049Z,13.10
2023-02-11T22:11:39.004Z,10.43
2023-02-11T22:14:07.493Z,16.03
2023-02-11T22:16:35.963Z,12.67
2023-02-11T22:19:04.132Z,13.20
2023-02-11T22:21:32.251Z,16.57
2023-02-11T22:24:02.092Z,8.10
2023-02-11T22:26:30.020Z,13.83
2023-02-11T22:28:58.502Z,15.17
2023-02-11T22:31:29.478Z,14.90
2023-02-11T22:33:57.985Z,17.40
2023-02-11T22:36:27.933Z,19.73
2023-02-11T22:38:56.516Z,12.30
2023-02-11T22:41:25.835Z,15.70
2023-02-11T22:43:53.814Z,17.33
2023-02-11T22:46:21.847Z,13.50
2023-02-11T22:48:49.916Z,14.37
2023-02-11T22:51:20.614Z,15.73
2023-02-11T22:53:52.805Z,10.87
2023-02-11T22:56:21.724Z,15.40
2023-02-11T22:58:51.895Z,13.17
2023-02-11T23:01:20.464Z,16.50
2023-02-11T23:03:48.886Z,17.80
2023-02-11T23:06:17.728Z,12.53
2023-02-11T23:08:46.283Z,13.03
2023-02-11T23:11:16.916Z,16.70
2023-02-11T23:13:46.567Z,16.90
2023-02-11T23:16:18.286Z,15.13
2023-02-11T23:18:47.671Z,16.37
2023-02-11T23:21:17.835Z,14.63
2023-02-11T23:23:46.449Z,22.07
2023-02-11T23:26:17.233Z,12.53
2023-02-11T23:28:46.229Z,16.37
2023-02-11T23:31:18.307Z,14.93
2023-02-11T23:33:46.928Z,12.53
2023-02-11T23:36:15.797Z,15.87
2023-02-11T23:38:43.744Z,16.10
2023-02-11T23:41:12.494Z,19.97
2023-02-11T23:43:42.766Z,13.93
2023-02-11T23:46:11.389Z,17.90
2023-02-11T23:48:41.396Z,14.47
2023-02-11T23:51:10.802Z,12.23
2023-02-11T23:53:41.016Z,18.50
2023-02-11T23:56:11.739Z,15.80
2023-02-11T23:58:39.861Z,16.30
